MST,Max TemperatureF,Mean TemperatureF,Min TemperatureF,Max Dew PointF,MeanDew PointF,Min DewpointF,Max Humidity, Mean Humidity, Min Humidity, Max Sea Level PressureIn, Mean Sea Level PressureIn, Min Sea Level PressureIn, Max VisibilityMiles, Mean VisibilityMiles, Min VisibilityMiles, Max Wind SpeedMPH, Mean Wind SpeedMPH, Max Gust SpeedMPH,PrecipitationIn, CloudCover, Events, WindDirDegrees
2014-1-1,9,2,-5,5,-1,-7,87,83,79,30.54,30.37,30.13,10,10,5,15,6,17,T,7,Snow,339
2014-1-2,21,14,6,19,10,5,100,92,83,30.37,30.05,29.66,10,5,0,18,12,21,T,5,Fog-Snow,109
2014-1-3,41,26,10,33,21,5,92,83,73,30.12,29.63,29.31,10,8,1,33,16,40,0.03,7,Rain-Snow,334
2014-1-4,10,2,-6,3,-8,-15,87,76,64,30.54,30.40,30.14,10,10,10,30,14,38,T,5,,315
2014-1-5,-4,-13,-23,-9,-22,-30,82,69,55,30.95,30.70,30.34,10,8,1,31,17,38,T,4,Snow,313
2014-1-6,5,-10,-26,-1,-15,-31,87,76,65,30.72,30.40,30.07,10,10,10,13,5,15,0.00,5,,104
2014-1-7,17,10,2,12,5,-1,88,82,76,30.26,30.15,29.97,10,9,2,18,9,21,0.01,7,Snow,64
2014-1-8,22,12,2,19,5,-2,92,86,79,30.24,30.02,29.76,10,10,10,24,15,27,0.00,6,,108
2014-1-9,32,25,18,26,22,18,100,85,69,29.75,29.64,29.57,10,10,10,16,7,21,0.00,2,,132
2014-1-10,32,24,16,21,17,13,91,80,68,29.82,29.63,29.55,10,10,10,16,7,20,0.00,1,,284
2014-1-11,48,30,12,35,23,11,92,79,65,29.84,29.50,29.26,10,10,10,37,13,49,0.02,3,Rain,171
2014-1-12,38,26,14,29,24,12,100,80,59,29.81,29.54,29.30,10,9,1,29,12,34,T,3,Snow,284
2014-1-13,41,28,15,32,23,14,100,82,64,30.16,29.72,29.52,10,8,1,39,13,50,T,4,Rain-Snow,305
2014-1-14,33,27,20,27,22,16,92,81,69,30.43,30.28,30.04,10,10,10,20,9,24,0.00,5,,278
2014-1-15,42,36,29,30,27,21,85,71,57,30.10,29.92,29.79,10,10,10,35,20,45,0.00,1,,288
2014-1-16,34,29,23,22,21,18,88,75,61,30.41,30.30,30.12,10,10,10,26,12,33,0.00,1,,298
2014-1-17,41,30,19,30,25,18,92,78,64,30.16,30.03,29.94,10,10,10,29,9,36,0.00,0,,272
2014-1-18,42,33,23,30,26,21,96,79,62,30.22,30.04,29.77,10,10,10,26,10,35,0.00,0,,273
2014-1-19,42,37,32,27,25,22,78,65,51,30.05,29.89,29.74,10,10,10,29,13,35,0.00,0,,294
2014-1-20,35,22,9,26,9,3,84,72,59,30.57,30.39,30.07,10,10,10,36,14,43,0.00,3,,19
2014-1-21,33,22,11,24,20,9,92,78,64,30.32,30.24,30.15,10,10,10,28,13,33,0.00,5,,312
2014-1-22,25,11,-3,18,4,-8,88,76,63,30.76,30.51,30.24,10,10,9,23,11,27,T,3,,55
2014-1-23,37,16,-5,28,10,-9,95,82,68,30.74,30.42,30.15,10,10,10,15,6,20,0.00,4,,171
2014-1-24,45,39,32,34,32,29,89,77,65,30.16,30.07,29.99,10,10,10,25,14,35,T,5,Rain,298
2014-1-25,50,41,31,33,31,29,92,71,50,30.13,29.89,29.69,10,10,10,33,16,45,0.00,2,,283
2014-1-26,38,19,0,30,4,-9,82,67,52,30.58,30.22,29.75,10,9,2,46,22,58,T,4,Snow,334
2014-1-27,9,3,-4,-4,-7,-10,79,67,55,30.59,30.53,30.37,10,10,10,16,5,18,0.00,3,,337
2014-1-28,25,10,-6,10,2,-9,88,67,46,30.55,30.20,29.82,10,10,10,13,6,16,0.00,0,,145
2014-1-29,26,18,9,18,12,5,92,76,60,29.83,29.68,29.54,10,6,1,18,8,22,0.07,5,Snow,350
2014-1-30,10,1,-9,4,-3,-13,88,73,57,30.16,30.06,29.84,10,9,2,23,12,29,T,5,Snow,304
2014-1-31,17,3,-12,9,-2,-14,92,76,59,30.16,29.97,29.75,10,9,2,28,11,33,T,4,Snow,300